createdAt,value
2018-09-23T00:01:16.566Z,7.30
2018-09-23T00:03:47.027Z,7.47
2018-09-23T00:06:17.563Z,7.90
2018-09-23T00:08:47.874Z,7.90
2018-09-23T00:11:18.443Z,7.03
2018-09-23T00:13:48.972Z,7.53
2018-09-23T00:16:19.420Z,7.70
2018-09-23T00:18:49.812Z,7.30
2018-09-23T00:21:20.294Z,7.12
2018-09-23T00:23:50.820Z,7.40
2018-09-23T00:26:21.353Z,7.37
2018-09-23T00:28:51.795Z,7.67
2018-09-23T00:31:22.470Z,6.97
2018-09-23T00:33:52.867Z,6.80
2018-09-23T00:36:33.063Z,6.80
2018-09-23T00:39:10.506Z,7.10
2018-09-23T00:41:41.678Z,6.40
2018-09-23T00:44:12.141Z,6.57
2018-09-23T00:46:42.904Z,6.50
2018-09-23T00:49:13.338Z,6.27
2018-09-23T00:51:43.774Z,6.37
2018-09-23T00:54:17.417Z,6.97
2018-09-23T00:56:47.869Z,7.30
2018-09-23T00:59:18.279Z,6.73
2018-09-23T01:01:48.832Z,6.67
2018-09-23T01:04:19.479Z,6.53
2018-09-23T01:06:49.944Z,7.10
2018-09-23T01:09:20.463Z,7.03
2018-09-23T01:11:50.958Z,7.33
2018-09-23T01:14:21.403Z,6.73
2018-09-23T01:16:51.846Z,6.87
2018-09-23T01:19:22.350Z,6.50
2018-09-23T01:21:52.881Z,7.13
2018-09-23T01:24:23.326Z,6.60
2018-09-23T01:26:53.854Z,6.73
2018-09-23T01:29:24.394Z,6.80
2018-09-23T01:31:55.029Z,6.90
2018-09-23T01:34:25.592Z,6.63
2018-09-23T01:36:56.172Z,6.60
2018-09-23T01:39:28.410Z,6.70
2018-09-23T01:41:58.922Z,7.13
2018-09-23T01:44:29.435Z,6.80
2018-09-23T01:46:59.943Z,7.17
2018-09-23T01:49:30.289Z,6.30
2018-09-23T01:52:00.731Z,6.80
2018-09-23T01:54:31.295Z,6.63
2018-09-23T01:57:02.020Z,6.23
2018-09-23T01:59:32.403Z,6.23
2018-09-23T02:02:02.990Z,6.87
2018-09-23T02:04:33.540Z,6.60
2018-09-23T02:07:04.491Z,6.80
2018-09-23T02:09:36.054Z,6.25
2018-09-23T02:12:06.640Z,6.23
2018-09-23T02:14:37.303Z,6.43
2018-09-23T02:17:08.052Z,6.43
2018-09-23T02:19:38.574Z,6.27
2018-09-23T02:22:09.779Z,5.90
2018-09-23T02:24:40.658Z,6.03
2018-09-23T02:27:11.382Z,6.67
2018-09-23T02:29:41.942Z,5.90
2018-09-23T02:32:12.575Z,6.30
2018-09-23T02:34:43.135Z,5.50
2018-09-23T02:37:13.977Z,6.47
2018-09-23T02:39:44.607Z,6.00
2018-09-23T02:42:15.131Z,6.63
2018-09-23T02:44:45.679Z,5.80
2018-09-23T02:47:16.254Z,6.23
2018-09-23T02:49:46.558Z,6.28
2018-09-23T02:52:17.401Z,6.93
2018-09-23T02:54:48.048Z,6.63
2018-09-23T02:57:18.654Z,7.37
2018-09-23T02:59:49.069Z,7.33
2018-09-23T03:02:19.806Z,8.17
2018-09-23T03:04:50.238Z,8.57
2018-09-23T03:07:20.896Z,7.47
2018-09-23T03:09:51.614Z,7.17
2018-09-23T03:12:22.586Z,7.70
2018-09-23T03:14:52.995Z,7.27
2018-09-23T03:17:23.547Z,7.17
2018-09-23T03:19:53.871Z,7.53
2018-09-23T03:22:24.582Z,7.07
2018-09-23T03:24:54.974Z,7.67
2018-09-23T03:27:25.429Z,7.43
2018-09-23T03:29:55.832Z,7.27
2018-09-23T03:32:26.302Z,7.27
2018-09-23T03:34:56.842Z,7.00
2018-09-23T03:37:27.374Z,7.33
2018-09-23T03:39:57.809Z,7.30
2018-09-23T03:42:28.230Z,6.40
2018-09-23T03:44:58.677Z,6.53
2018-09-23T03:47:29.091Z,6.50
2018-09-23T03:49:59.570Z,6.70
2018-09-23T03:52:29.957Z,7.03
2018-09-23T03:55:00.458Z,6.33
2018-09-23T03:57:31.088Z,6.70
2018-09-23T04:00:01.454Z,6.60
2018-09-23T04:02:31.923Z,6.30
2018-09-23T04:05:02.240Z,7.17
2018-09-23T04:07:32.624Z,6.37
2018-09-23T04:10:03.014Z,7.30
2018-09-23T04:12:33.623Z,6.63
2018-09-23T04:15:04.181Z,7.17
2018-09-23T04:17:34.584Z,6.87
2018-09-23T04:20:05.065Z,7.03
2018-09-23T04:22:41.647Z,7.17
2018-09-23T04:25:12.056Z,6.70
2018-09-23T04:27:42.547Z,7.70
2018-09-23T04:30:13.126Z,7.70
2018-09-23T04:32:43.686Z,7.63
2018-09-23T04:35:14.188Z,7.50
2018-09-23T04:37:44.637Z,7.50
2018-09-23T04:40:15.056Z,7.07
2018-09-23T04:42:45.467Z,8.43
2018-09-23T04:45:15.933Z,7.87
2018-09-23T04:47:46.484Z,7.77
2018-09-23T04:50:17.048Z,8.40
2018-09-23T04:52:47.623Z,7.83
2018-09-23T04:55:18.124Z,7.37
2018-09-23T04:57:48.578Z,7.57
2018-09-23T05:00:19.023Z,7.63
2018-09-23T05:02:49.657Z,7.87
2018-09-23T05:05:20.238Z,8.13
2018-09-23T05:07:53.047Z,7.73
2018-09-23T05:10:23.558Z,8.27
2018-09-23T05:12:53.911Z,8.17
2018-09-23T05:15:24.562Z,7.57
2018-09-23T05:17:54.739Z,9.07
2018-09-23T05:20:24.921Z,8.47
2018-09-23T05:22:55.064Z,8.60
2018-09-23T05:25:25.187Z,8.20
2018-09-23T05:27:55.345Z,8.13
2018-09-23T05:30:25.417Z,8.60
2018-09-23T05:32:55.764Z,8.00
2018-09-23T05:35:25.937Z,8.23
2018-09-23T05:37:56.066Z,7.97
2018-09-23T05:40:26.102Z,9.00
2018-09-23T05:42:56.310Z,8.63
2018-09-23T05:45:26.486Z,7.93
2018-09-23T05:47:56.691Z,8.47
2018-09-23T05:50:26.823Z,8.87
2018-09-23T05:52:56.992Z,8.47
2018-09-23T05:55:27.170Z,8.77
2018-09-23T05:57:57.427Z,8.63
2018-09-23T06:00:29.114Z,8.80
2018-09-23T06:02:59.463Z,8.57
2018-09-23T06:05:29.468Z,8.70
2018-09-23T06:08:00.440Z,8.17
2018-09-23T06:10:30.727Z,8.17
2018-09-23T06:13:00.838Z,9.30
2018-09-23T06:15:30.909Z,8.10
2018-09-23T06:18:01.003Z,8.30
2018-09-23T06:20:31.163Z,8.03
2018-09-23T06:23:01.385Z,9.20
2018-09-23T06:25:31.592Z,9.23
2018-09-23T06:28:01.809Z,8.90
2018-09-23T06:30:31.959Z,8.93
2018-09-23T06:33:02.159Z,8.00
2018-09-23T06:35:32.235Z,9.63
2018-09-23T06:38:02.444Z,8.63
2018-09-23T06:40:32.747Z,9.47
2018-09-23T06:43:02.988Z,9.17
2018-09-23T06:45:33.092Z,8.33
2018-09-23T06:48:03.467Z,9.13
2018-09-23T06:50:33.636Z,9.17
2018-09-23T06:53:03.825Z,8.63
2018-09-23T06:55:34.180Z,8.60
2018-09-23T06:58:04.518Z,9.13
2018-09-23T07:00:34.731Z,9.17
2018-09-23T07:03:04.972Z,9.50
2018-09-23T07:05:35.096Z,9.57
2018-09-23T07:08:05.341Z,8.57
2018-09-23T07:10:35.483Z,8.27
2018-09-23T07:13:06.083Z,8.60
2018-09-23T07:15:36.279Z,7.83
2018-09-23T07:18:06.638Z,8.47
2018-09-23T07:20:36.709Z,9.43
2018-09-23T07:23:06.891Z,8.87
2018-09-23T07:25:37.222Z,8.57
2018-09-23T07:28:07.488Z,9.13
2018-09-23T07:30:38.093Z,8.53
2018-09-23T07:33:08.527Z,8.03
2018-09-23T07:35:38.792Z,8.00
2018-09-23T07:38:09.073Z,8.73
2018-09-23T07:40:39.301Z,7.97
2018-09-23T07:43:09.575Z,8.37
2018-09-23T07:45:39.767Z,8.73
2018-09-23T07:48:09.932Z,7.93
2018-09-23T07:50:40.108Z,7.53
2018-09-23T07:53:10.435Z,8.20
2018-09-23T07:55:40.784Z,9.33
2018-09-23T07:58:11.150Z,7.47
2018-09-23T08:00:41.479Z,8.53
2018-09-23T08:03:11.784Z,8.73
2018-09-23T08:05:42.014Z,8.47
2018-09-23T08:08:12.406Z,8.57
2018-09-23T08:10:42.698Z,8.00
2018-09-23T08:13:13.152Z,8.87
2018-09-23T08:15:43.414Z,7.97
2018-09-23T08:18:13.727Z,8.97
2018-09-23T08:20:43.973Z,8.73
2018-09-23T08:23:14.316Z,7.97
2018-09-23T08:25:44.552Z,8.20
2018-09-23T08:28:14.648Z,9.20
2018-09-23T08:30:44.830Z,8.50
2018-09-23T08:33:15.138Z,8.80
2018-09-23T08:35:45.444Z,8.40
2018-09-23T08:38:15.589Z,8.67
2018-09-23T08:40:45.742Z,7.40
2018-09-23T08:43:15.992Z,8.57
2018-09-23T08:45:46.553Z,8.17
2018-09-23T08:48:16.804Z,7.87
2018-09-23T08:50:47.023Z,8.73
2018-09-23T08:53:17.216Z,7.73
2018-09-23T08:55:47.317Z,7.57
2018-09-23T08:58:17.446Z,8.67
2018-09-23T09:00:47.734Z,8.23
2018-09-23T09:03:18.043Z,8.60
2018-09-23T09:05:48.246Z,8.47
2018-09-23T09:08:18.496Z,8.23
2018-09-23T09:10:48.623Z,8.33
2018-09-23T09:13:18.760Z,9.00
2018-09-23T09:15:49.013Z,9.20
2018-09-23T09:18:19.333Z,9.40
2018-09-23T09:20:49.477Z,9.33
2018-09-23T09:23:19.538Z,10.40
2018-09-23T09:25:49.791Z,8.40
2018-09-23T09:28:19.847Z,10.63
2018-09-23T09:30:49.952Z,9.87
2018-09-23T09:33:20.106Z,9.80
2018-09-23T09:35:50.171Z,10.30
2018-09-23T09:38:21.071Z,11.40
2018-09-23T09:40:51.122Z,10.17
2018-09-23T09:43:21.250Z,10.33
2018-09-23T09:45:51.281Z,10.90
2018-09-23T09:48:22.030Z,11.23
2018-09-23T09:50:55.245Z,10.47
2018-09-23T09:53:26.518Z,10.13
2018-09-23T09:55:57.110Z,9.43
2018-09-23T09:58:27.250Z,9.97
2018-09-23T10:00:57.908Z,9.20
2018-09-23T10:03:28.750Z,9.13
2018-09-23T10:05:58.871Z,7.20
2018-09-23T10:08:29.149Z,7.67
2018-09-23T10:10:59.379Z,7.83
2018-09-23T10:13:29.444Z,8.30
2018-09-23T10:15:59.707Z,6.90
2018-09-23T10:18:30.082Z,7.47
2018-09-23T10:21:00.491Z,7.27
2018-09-23T10:23:35.002Z,7.27
2018-09-23T10:26:05.390Z,6.77
2018-09-23T10:28:35.652Z,6.60
2018-09-23T10:31:06.515Z,7.20
2018-09-23T10:33:36.740Z,7.10
2018-09-23T10:36:06.993Z,8.17
2018-09-23T10:38:37.170Z,8.07
2018-09-23T10:41:07.630Z,7.97
2018-09-23T10:43:37.820Z,8.17
2018-09-23T10:46:08.065Z,8.70
2018-09-23T10:48:38.297Z,8.67
2018-09-23T10:51:11.611Z,10.67
2018-09-23T10:53:42.151Z,10.30
2018-09-23T10:56:12.597Z,9.53
2018-09-23T10:58:42.956Z,9.93
2018-09-23T11:01:13.365Z,9.10
2018-09-23T11:03:43.682Z,9.77
2018-09-23T11:06:13.980Z,9.73
2018-09-23T11:08:44.526Z,9.53
2018-09-23T11:11:14.905Z,8.77
2018-09-23T11:13:45.266Z,8.73
2018-09-23T11:16:15.520Z,8.93
2018-09-23T11:18:45.708Z,9.13
2018-09-23T11:21:15.887Z,9.83
2018-09-23T11:23:46.084Z,9.90
2018-09-23T11:26:16.329Z,8.67
2018-09-23T11:28:46.588Z,9.37
2018-09-23T11:31:17.048Z,9.43
2018-09-23T11:33:47.333Z,9.10
2018-09-23T11:36:17.748Z,8.43
2018-09-23T11:38:48.067Z,6.97
2018-09-23T11:41:18.490Z,7.03
2018-09-23T11:43:48.693Z,7.27
2018-09-23T11:46:18.894Z,7.33
2018-09-23T11:48:49.051Z,6.70
2018-09-23T11:51:19.281Z,6.60
2018-09-23T11:53:49.399Z,7.10
2018-09-23T11:56:19.881Z,6.90
2018-09-23T11:58:50.220Z,8.23
2018-09-23T12:01:20.482Z,8.47
2018-09-23T12:03:50.799Z,9.37
2018-09-23T12:06:21.072Z,9.63
2018-09-23T12:08:51.256Z,9.07
2018-09-23T12:11:21.623Z,9.13
2018-09-23T12:13:51.941Z,8.03
2018-09-23T12:18:58.324Z,8.03
2018-09-23T12:21:28.659Z,8.07
2018-09-23T12:23:58.895Z,8.50
2018-09-23T12:26:30.627Z,9.57
2018-09-23T12:29:01.880Z,9.87
2018-09-23T12:31:32.270Z,9.50
2018-09-23T12:34:02.565Z,8.63
2018-09-23T12:36:34.459Z,9.87
2018-09-23T12:39:06.511Z,10.73
2018-09-23T12:41:36.735Z,9.83
2018-09-23T12:44:07.312Z,10.67
2018-09-23T12:46:37.535Z,9.93
2018-09-23T12:49:08.536Z,12.53
2018-09-23T12:51:41.138Z,11.33
2018-09-23T12:54:12.814Z,10.13
2018-09-23T12:56:43.083Z,11.43
2018-09-23T12:59:13.256Z,10.77
2018-09-23T13:01:43.481Z,10.83
2018-09-23T13:04:14.190Z,8.67
2018-09-23T13:06:45.025Z,10.07
2018-09-23T13:09:15.214Z,10.27
2018-09-23T13:11:45.428Z,10.63
2018-09-23T13:14:15.621Z,10.40
2018-09-23T13:16:49.362Z,10.83
2018-09-23T13:19:19.983Z,9.50
2018-09-23T13:21:50.229Z,12.10
2018-09-23T13:24:20.346Z,9.73
2018-09-23T13:26:50.513Z,10.57
2018-09-23T13:29:22.626Z,11.97
2018-09-23T13:31:52.919Z,10.73
2018-09-23T13:34:23.116Z,11.63
2018-09-23T13:36:53.338Z,12.40
2018-09-23T13:39:23.544Z,12.43
2018-09-23T13:41:53.806Z,12.60
2018-09-23T13:44:23.914Z,12.00
2018-09-23T13:46:56.978Z,12.63
2018-09-23T13:49:27.355Z,10.97
2018-09-23T13:51:58.204Z,12.63
2018-09-23T13:54:28.437Z,12.37
2018-09-23T13:56:58.696Z,11.97
2018-09-23T13:59:28.927Z,12.47
2018-09-23T14:01:59.169Z,12.93
2018-09-23T14:04:29.332Z,11.07
2018-09-23T14:06:59.625Z,10.60
2018-09-23T14:09:35.995Z,9.80
2018-09-23T14:12:06.469Z,9.93
2018-09-23T14:14:36.727Z,9.23
2018-09-23T14:17:07.058Z,9.47
2018-09-23T14:19:37.476Z,8.37
2018-09-23T14:22:07.889Z,7.13
2018-09-23T14:24:38.141Z,6.43
2018-09-23T14:27:08.515Z,6.20
2018-09-23T14:29:38.770Z,5.43
2018-09-23T14:32:09.149Z,5.70
2018-09-23T14:34:39.405Z,5.90
2018-09-23T14:37:09.609Z,5.37
2018-09-23T14:39:40.070Z,5.20
2018-09-23T14:42:10.334Z,7.20
2018-09-23T14:44:40.729Z,6.77
2018-09-23T14:47:11.164Z,5.93
2018-09-23T14:49:41.642Z,7.00
2018-09-23T14:52:11.903Z,6.20
2018-09-23T14:54:42.354Z,7.27
2018-09-23T14:57:12.472Z,7.30
2018-09-23T14:59:42.813Z,8.80
2018-09-23T15:02:13.114Z,7.20
2018-09-23T15:04:43.522Z,7.43
2018-09-23T15:07:13.812Z,5.17
2018-09-23T15:09:44.122Z,5.53
2018-09-23T15:12:14.377Z,5.50
2018-09-23T15:14:44.869Z,4.30
2018-09-23T15:17:15.125Z,4.30
2018-09-23T15:19:45.370Z,4.10
2018-09-23T15:22:15.585Z,3.77
2018-09-23T15:24:45.631Z,3.40
2018-09-23T15:27:16.538Z,2.70
2018-09-23T15:29:47.041Z,3.50
2018-09-23T15:32:17.358Z,2.83
2018-09-23T15:34:47.760Z,2.97
2018-09-23T15:37:19.059Z,2.70
2018-09-23T15:39:49.427Z,2.83
2018-09-23T15:42:19.702Z,3.23
2018-09-23T15:44:49.998Z,2.70
2018-09-23T15:47:20.578Z,2.70
2018-09-23T15:49:50.838Z,2.40
2018-09-23T15:52:21.291Z,2.77
2018-09-23T15:54:51.880Z,2.20
2018-09-23T15:57:22.191Z,3.10
2018-09-23T15:59:52.739Z,2.72
2018-09-23T16:02:52.701Z,3.57
2018-09-23T16:05:22.953Z,2.90
2018-09-23T16:08:09.880Z,2.87
2018-09-23T16:10:41.574Z,2.57
2018-09-23T16:13:31.920Z,1.90
2018-09-23T16:16:02.669Z,2.20
2018-09-23T16:19:11.136Z,2.37
2018-09-23T16:21:42.634Z,2.67
2018-09-23T16:24:12.978Z,2.90
2018-09-23T16:26:43.034Z,2.60
2018-09-23T16:29:13.033Z,2.60
2018-09-23T16:31:43.117Z,2.47
2018-09-23T16:34:13.008Z,3.10
2018-09-23T16:36:43.098Z,2.63
2018-09-23T16:39:13.504Z,3.30
2018-09-23T16:41:43.587Z,3.10
2018-09-23T16:44:13.565Z,2.57
2018-09-23T16:46:43.576Z,3.10
2018-09-23T16:49:13.530Z,2.63
2018-09-23T16:51:43.628Z,3.10
2018-09-23T17:07:56.136Z,2.77
2018-09-23T17:10:27.149Z,2.83
2018-09-23T17:13:02.812Z,3.17
2018-09-23T17:15:40.894Z,2.97
2018-09-23T17:18:14.603Z,3.20
2018-09-23T17:20:55.186Z,3.17
2018-09-23T17:23:49.037Z,3.30
2018-09-23T17:26:31.557Z,2.93
2018-09-23T17:29:10.578Z,3.00
2018-09-23T17:31:48.260Z,3.60
2018-09-23T17:34:24.312Z,2.83
2018-09-23T17:36:59.439Z,3.07
2018-09-23T17:39:32.889Z,3.20
2018-09-23T17:42:03.852Z,2.97
2018-09-23T17:44:37.899Z,2.93
2018-09-23T17:47:15.652Z,2.93
2018-09-23T17:49:46.236Z,2.97
2018-09-23T17:52:17.958Z,2.73
2018-09-23T17:54:55.260Z,2.40
2018-09-23T17:57:34.033Z,2.27
2018-09-23T18:00:12.549Z,2.30
2018-09-23T18:38:40.229Z,1.67
